Time;durP1;ratioP1;P1;durP2;ratioP2;P2;SDS_P1;SDS_P2;PMS_P1;PMS_P2;Temp;Humidity;BMP_temperature;BMP_pressure;BME280_temperature;BME280_humidity;BME280_pressure;Samples;Min_cycle;Max_cycle;Signal;HPM_P1;HPM_P2
2022/04/27 00:00:02;;;;;;;9.10;5.95;;;;;;;9.85;88.76;99992.50;6274147;28;20110;-73
2022/04/27 00:03:05;;;;;;;10.95;6.50;;;;;;;9.83;89.15;99988.31;6241614;28;20505;-75
2022/04/27 00:06:05;;;;;;;;;;;;;;;9.79;89.27;99989.41;6276114;28;20393;-74
2022/04/27 00:09:06;;;;;;;12.93;6.85;;;;;;;9.77;89.46;99986.88;6257925;28;20400;-74
2022/04/27 00:12:08;;;;;;;11.30;6.80;;;;;;;9.71;89.86;99989.84;6276262;28;20047;-74
2022/04/27 00:15:09;;;;;;;11.63;6.83;;;;;;;9.63;90.58;99986.84;6274877;28;20515;-74
2022/04/27 00:18:10;;;;;;;10.88;6.28;;;;;;;9.63;91.22;99987.69;6274322;28;20053;-74
2022/04/27 00:21:11;;;;;;;12.15;6.63;;;;;;;9.60;92.48;99984.44;6257800;28;20076;-75
2022/04/27 00:24:12;;;;;;;13.75;6.40;;;;;;;9.56;92.68;99988.97;6291687;28;20061;-73
2022/04/27 00:27:12;;;;;;;9.13;6.65;;;;;;;9.57;93.98;99998.47;6274184;28;20084;-75
2022/04/27 00:30:13;;;;;;;11.45;6.15;;;;;;;9.49;93.37;99995.47;6291036;28;20481;-75
2022/04/27 00:33:15;;;;;;;11.48;6.25;;;;;;;9.44;94.26;99989.69;6274596;28;20128;-74
2022/04/27 00:36:16;;;;;;;10.23;6.65;;;;;;;9.39;94.82;99987.34;6275482;28;20056;-75
2022/04/27 00:39:17;;;;;;;11.57;7.25;;;;;;;9.37;95.53;99988.34;6274268;28;20114;-75
2022/04/27 00:42:21;;;;;;;14.88;7.43;;;;;;;9.35;95.30;99982.38;6257346;28;20064;-73
2022/04/27 00:45:22;;;;;;;13.48;6.97;;;;;;;9.34;96.91;99983.31;6256991;28;20071;-73
2022/04/27 00:48:23;;;;;;;10.77;7.25;;;;;;;9.31;97.48;99975.66;6274655;28;20045;-75
2022/04/27 00:51:26;;;;;;;11.40;7.40;;;;;;;9.30;98.11;99980.06;6256679;28;20052;-75
2022/04/27 00:54:28;;;;;;;10.77;7.20;;;;;;;9.25;98.39;99985.53;6273563;28;20064;-75
2022/04/27 00:57:30;;;;;;;15.68;7.63;;;;;;;9.25;98.66;99976.88;6273937;28;20162;-75
2022/04/27 01:00:30;;;;;;;11.93;7.50;;;;;;;9.26;99.96;99973.34;6256883;28;20053;-75
2022/04/27 01:03:36;;;;;;;13.25;8.10;;;;;;;9.31;98.78;99968.72;6274535;28;20052;-73
2022/04/27 01:06:39;;;;;;;12.50;8.05;;;;;;;9.22;100.00;99972.66;6256527;28;20051;-73
2022/04/27 01:09:40;;;;;;;14.23;8.15;;;;;;;9.13;100.00;99957.59;6273290;28;20037;-75
2022/04/27 01:12:41;;;;;;;17.38;8.35;;;;;;;9.16;100.00;99962.63;6274355;28;20071;-75
2022/04/27 01:15:43;;;;;;;12.73;8.25;;;;;;;9.18;100.00;99966.00;6256757;28;20105;-73
2022/04/27 01:18:45;;;;;;;12.55;7.68;;;;;;;9.16;100.00;99973.03;6274315;28;20071;-75
2022/04/27 01:21:47;;;;;;;11.88;7.85;;;;;;;9.19;100.00;99964.22;6256560;28;20114;-75
2022/04/27 01:24:49;;;;;;;12.60;7.60;;;;;;;9.25;100.00;99966.47;6274377;28;20081;-75
2022/04/27 01:27:50;;;;;;;14.10;8.27;;;;;;;9.22;100.00;99967.47;6272575;28;20048;-73
2022/04/27 01:31:08;;;;;;;13.38;7.85;;;;;;;9.25;100.00;99958.66;6240161;28;20057;-73
2022/04/27 01:34:09;;;;;;;12.73;8.30;;;;;;;9.23;100.00;99963.94;6240950;28;20463;-75
2022/04/27 01:40:30;;;;;;;11.68;7.97;;;;;;;9.28;100.00;99968.88;6272715;28;20103;-73
2022/04/27 01:43:33;;;;;;;12.13;7.90;;;;;;;9.32;100.00;99962.56;6273778;28;20049;-75
2022/04/27 01:46:33;;;;;;;;;;;;;;;9.35;100.00;99970.22;6256307;28;20044;-73
2022/04/27 01:49:34;;;;;;;11.13;7.50;;;;;;;9.33;100.00;99966.00;6255560;28;20304;-73
2022/04/27 01:55:55;;;;;;;13.13;7.93;;;;;;;9.28;100.00;99959.31;6271787;28;20040;-73
2022/04/27 01:58:56;;;;;;;12.05;8.00;;;;;;;9.26;100.00;99953.34;6255092;28;20043;-73
2022/04/27 02:01:58;;;;;;;12.43;7.78;;;;;;;9.25;100.00;99954.28;6271718;28;20073;-73
2022/04/27 02:04:59;;;;;;;16.42;7.50;;;;;;;9.29;100.00;99949.75;6271004;28;20154;-73
2022/04/27 02:08:00;;;;;;;12.95;7.82;;;;;;;9.30;100.00;99946.19;6271883;28;20573;-73
2022/04/27 02:11:01;;;;;;;10.68;7.15;;;;;;;9.31;100.00;99947.91;6271620;28;20071;-73
2022/04/27 02:14:02;;;;;;;10.68;7.32;;;;;;;9.34;100.00;99941.66;6255295;28;20056;-75
2022/04/27 02:17:03;;;;;;;11.80;7.22;;;;;;;9.39;100.00;99947.44;6271604;28;20053;-73
2022/04/27 02:20:04;;;;;;;12.25;7.25;;;;;;;9.35;100.00;99940.72;6271285;28;20144;-73
2022/04/27 02:23:05;;;;;;;14.98;8.95;;;;;;;9.32;100.00;99933.94;6271521;28;20049;-75
2022/04/27 02:26:06;;;;;;;12.18;7.57;;;;;;;9.36;100.00;99945.03;6270982;28;20489;-76
2022/04/27 02:29:08;;;;;;;14.05;7.65;;;;;;;9.31;100.00;99940.09;6271277;28;20051;-73
2022/04/27 02:32:09;;;;;;;11.88;7.65;;;;;;;9.38;100.00;99950.97;6254984;28;20044;-73
2022/04/27 02:35:10;;;;;;;12.25;7.32;;;;;;;9.38;100.00;99948.38;6254856;28;20124;-75
2022/04/27 02:38:11;;;;;;;12.88;7.28;;;;;;;9.34;100.00;99952.09;6271225;28;20048;-73
2022/04/27 02:41:11;;;;;;;11.20;7.28;;;;;;;9.37;100.00;99952.75;6272496;28;20072;-74
2022/04/27 02:44:12;;;;;;;14.65;7.47;;;;;;;9.34;100.00;99960.72;6271306;28;20052;-75
2022/04/27 02:47:14;;;;;;;10.52;7.63;;;;;;;9.33;100.00;99950.38;6287766;28;20060;-74
2022/04/27 02:53:37;;;;;;;12.15;7.75;;;;;;;9.30;100.00;99951.41;6271302;28;20033;-75
2022/04/27 02:56:38;;;;;;;12.15;7.13;;;;;;;9.30;100.00;99942.75;6271411;28;20049;-75
2022/04/27 02:59:41;;;;;;;11.23;7.40;;;;;;;9.34;100.00;99947.69;6272329;28;20159;-75
2022/04/27 03:02:42;;;;;;;12.23;7.35;;;;;;;9.37;100.00;99959.69;6270921;28;20072;-75
2022/04/27 03:05:44;;;;;;;15.02;7.13;;;;;;;9.38;100.00;99972.63;6271269;28;20057;-73
2022/04/27 03:08:44;;;;;;;10.85;7.13;;;;;;;9.38;100.00;99967.44;6271287;28;20052;-75
2022/04/27 03:11:45;;;;;;;10.32;6.60;;;;;;;9.28;100.00;99959.31;6270788;28;20076;-76
2022/04/27 03:14:46;;;;;;;12.60;7.47;;;;;;;9.23;100.00;99966.56;6255015;28;20056;-75
2022/04/27 03:18:16;;;;;;;9.52;6.35;;;;;;;9.34;100.00;99967.69;6277119;28;20040;-75
2022/04/27 03:21:07;;;;;;;10.00;6.45;;;;;;;9.38;100.00;99962.22;6276890;28;20053;-73
2022/04/27 03:24:08;;;;;;;10.10;6.72;;;;;;;9.37;100.00;99970.97;6276898;28;20091;-73
2022/04/27 03:27:09;;;;;;;11.48;7.10;;;;;;;9.40;100.00;99968.19;6258756;28;20491;-73
2022/04/27 03:30:10;;;;;;;11.48;7.22;;;;;;;9.43;100.00;99968.03;6258531;28;20063;-74
2022/04/27 03:33:11;;;;;;;10.07;6.90;;;;;;;9.41;100.00;99969.88;6258952;28;20143;-73
2022/04/27 03:36:12;;;;;;;10.48;6.88;;;;;;;9.44;100.00;99967.09;6276648;28;20546;-73
2022/04/27 03:39:13;;;;;;;9.95;6.45;;;;;;;9.50;100.00;99975.47;6275530;28;20049;-75
2022/04/27 03:42:13;;;;;;;11.43;7.03;;;;;;;9.58;100.00;99978.47;6242502;28;20045;-75
2022/04/27 03:45:14;;;;;;;11.75;6.70;;;;;;;9.53;100.00;99973.50;6291887;28;20052;-76
2022/04/27 03:48:15;;;;;;;8.85;5.95;;;;;;;9.52;100.00;99971.03;6258688;28;20049;-74
2022/04/27 03:51:16;;;;;;;11.40;6.85;;;;;;;9.58;100.00;99974.09;6242072;28;20210;-73
2022/04/27 03:54:17;;;;;;;11.00;6.28;;;;;;;9.64;100.00;99972.91;6242520;28;20041;-73
2022/04/27 03:57:18;;;;;;;11.02;6.00;;;;;;;9.74;100.00;99983.63;6275015;28;20072;-73
2022/04/27 04:00:18;;;;;;;10.02;6.40;;;;;;;9.79;100.00;99990.25;6274796;28;20499;-73
2022/04/27 04:03:19;;;;;;;9.07;5.93;;;;;;;9.73;100.00;99979.34;6276015;28;20099;-73
2022/04/27 04:06:20;;;;;;;8.52;6.05;;;;;;;9.79;100.00;99990.25;6274828;28;20107;-75
2022/04/27 04:09:21;;;;;;;9.73;6.28;;;;;;;9.80;100.00;99978.03;6274869;28;20056;-73
2022/04/27 04:12:22;;;;;;;10.38;6.13;;;;;;;9.84;100.00;99992.56;6274725;28;20044;-73
2022/04/27 04:15:22;;;;;;;9.90;5.65;;;;;;;9.94;100.00;99983.28;6291464;28;20055;-73
2022/04/27 04:18:23;;;;;;;9.10;6.05;;;;;;;10.01;100.00;99991.59;6275678;28;20052;-73
2022/04/27 04:21:26;;;;;;;10.57;6.50;;;;;;;10.04;100.00;99989.63;6274374;28;20516;-74
2022/04/27 04:24:27;;;;;;;;;;;;;;;10.15;99.35;99998.56;6258180;28;20495;-73
2022/04/27 04:30:47;;;;;;;10.80;5.97;;;;;;;10.24;98.72;100001.47;6269183;28;20067;-75
2022/04/27 04:33:47;;;;;;;10.50;6.70;;;;;;;10.39;100.00;100011.94;6264575;28;20037;-75
2022/04/27 04:36:48;;;;;;;11.02;6.88;;;;;;;10.43;96.95;100006.44;6290345;28;20052;-73
2022/04/27 04:39:49;;;;;;;10.73;7.13;;;;;;;10.55;96.04;100017.91;6273294;28;20120;-73
2022/04/27 04:42:50;;;;;;;11.00;6.03;;;;;;;10.52;95.72;100018.06;6261736;28;20108;-73
2022/04/27 04:45:51;;;;;;;9.73;6.75;;;;;;;10.60;95.49;100020.22;6248447;28;20536;-74
2022/04/27 04:48:52;;;;;;;14.38;7.45;;;;;;;10.45;95.32;100022.81;6265039;28;20046;-73
2022/04/27 04:51:53;;;;;;;10.32;6.75;;;;;;;10.47;95.80;100027.97;6231840;28;20091;-75
2022/04/27 04:54:54;;;;;;;9.20;6.72;;;;;;;10.47;95.58;100033.19;6232037;28;20057;-75
2022/04/27 04:57:55;;;;;;;13.07;7.07;;;;;;;10.54;95.88;100033.63;6248056;28;20068;-75
2022/04/27 05:00:55;;;;;;;14.88;7.13;;;;;;;10.72;93.98;100034.28;6215410;28;20061;-75
2022/04/27 05:03:56;;;;;;;10.32;6.93;;;;;;;10.75;93.49;100041.91;6248264;28;20042;-75
2022/04/27 05:06:57;;;;;;;11.95;7.93;;;;;;;10.86;92.45;100037.69;6248092;28;20049;-74
2022/04/27 05:09:58;;;;;;;10.77;6.80;;;;;;;10.79;92.62;100046.88;6249194;28;20045;-75
2022/04/27 05:12:59;;;;;;;11.98;7.35;;;;;;;10.73;93.22;100043.78;6264535;28;20072;-75
2022/04/27 05:16:00;;;;;;;15.00;6.82;;;;;;;10.82;92.88;100036.22;6247786;28;20136;-75
2022/04/27 05:19:00;;;;;;;14.00;7.88;;;;;;;10.96;91.67;100051.03;6231103;28;20482;-73
2022/04/27 05:22:01;;;;;;;16.95;7.03;;;;;;;11.05;91.72;100041.78;6251710;28;20052;-75
2022/04/27 05:25:03;;;;;;;11.05;6.68;;;;;;;11.12;90.49;100055.28;6246322;28;20057;-74
2022/04/27 05:28:04;;;;;;;14.07;7.25;;;;;;;11.11;91.03;100054.44;6258791;28;20191;-73
2022/04/27 05:34:26;;;;;;;9.65;6.13;;;;;;;11.36;88.74;100048.47;6247884;28;20568;-75
2022/04/27 05:37:27;;;;;;;9.98;6.18;;;;;;;11.46;88.89;100059.19;6230642;28;20464;-75
2022/04/27 05:40:27;;;;;;;11.48;7.07;;;;;;;11.62;89.55;100049.41;6270528;28;20045;-74
2022/04/27 05:43:28;;;;;;;10.25;6.40;;;;;;;11.64;87.71;100060.59;6254849;28;20041;-74
2022/04/27 05:46:29;;;;;;;11.35;6.65;;;;;;;11.88;86.29;100054.69;6271020;28;20419;-73
2022/04/27 05:49:30;;;;;;;12.18;6.35;;;;;;;11.90;86.06;100065.91;6271299;28;20080;-76
2022/04/27 05:52:45;;;;;;;13.93;6.47;;;;;;;11.87;85.87;100064.31;6254689;28;20055;-75
2022/04/27 05:55:46;;;;;;;9.40;5.88;;;;;;;11.90;85.23;100068.53;6256653;28;20500;-73
2022/04/27 05:58:47;;;;;;;9.13;5.97;;;;;;;12.10;83.92;100069.81;6254436;28;20060;-74
2022/04/27 06:01:48;;;;;;;10.97;6.80;;;;;;;12.33;83.82;100065.66;6271086;28;20036;-74
2022/04/27 06:04:49;;;;;;;12.70;6.28;;;;;;;12.55;82.85;100077.28;6272101;28;20288;-73
2022/04/27 06:07:50;;;;;;;10.40;6.03;;;;;;;12.68;81.35;100073.72;6272247;28;20072;-75
2022/04/27 06:10:51;;;;;;;9.50;5.95;;;;;;;12.74;80.75;100084.69;6270906;28;20086;-76
2022/04/27 06:13:52;;;;;;;11.68;6.25;;;;;;;12.88;81.07;100085.41;6272217;28;20091;-76
2022/04/27 06:16:52;;;;;;;7.57;5.55;;;;;;;13.05;82.69;100083.38;6287483;28;20049;-73
2022/04/27 06:19:53;;;;;;;9.02;5.75;;;;;;;13.03;79.76;100087.88;6237746;28;20059;-76
2022/04/27 06:22:56;;;;;;;10.63;6.07;;;;;;;12.93;79.46;100094.72;6270745;28;20041;-73
2022/04/27 06:25:57;;;;;;;11.27;5.65;;;;;;;13.05;82.10;100106.94;6304153;28;20052;-73
2022/04/27 06:28:58;;;;;;;9.25;5.78;;;;;;;13.33;83.14;100107.66;6271703;28;20060;-73
2022/04/27 06:31:59;;;;;;;7.22;5.40;;;;;;;13.57;80.88;100113.75;6253619;28;20496;-73
2022/04/27 06:35:00;;;;;;;9.80;6.65;;;;;;;13.78;80.06;100116.59;6286881;28;20052;-76
2022/04/27 06:38:01;;;;;;;8.63;5.80;;;;;;;13.80;74.67;100122.56;6270372;28;20056;-74
2022/04/27 06:41:03;;;;;;;8.48;5.85;;;;;;;14.02;74.20;100116.56;6270290;28;20049;-75
2022/04/27 06:44:04;;;;;;;7.40;5.73;;;;;;;14.20;76.70;100114.34;6253816;28;20423;-75
2022/04/27 06:47:05;;;;;;;9.43;5.82;;;;;;;14.29;78.85;100115.44;6270370;28;20290;-76
2022/04/27 06:50:07;;;;;;;7.85;5.10;;;;;;;14.03;72.50;100122.66;6253484;28;20497;-76
2022/04/27 06:53:09;;;;;;;8.95;5.45;;;;;;;14.05;73.86;100118.94;6287167;28;20465;-75
2022/04/27 06:56:09;;;;;;;9.68;5.90;;;;;;;14.21;77.22;100113.41;6254130;28;20110;-76
2022/04/27 06:59:10;;;;;;;10.18;5.35;;;;;;;14.42;71.55;100118.81;6270607;28;20456;-75
2022/04/27 07:02:14;;;;;;;8.18;5.22;;;;;;;14.35;71.15;100115.00;6237238;28;20489;-76
2022/04/27 07:05:20;;;;;;;9.00;5.32;;;;;;;14.56;70.29;100112.53;6253451;28;20471;-73
2022/04/27 07:08:21;;;;;;;8.05;5.07;;;;;;;14.84;69.32;100115.66;6253996;28;20073;-75
2022/04/27 07:11:21;;;;;;;11.32;6.05;;;;;;;14.67;70.36;100125.66;6286925;28;20084;-74
2022/04/27 07:14:23;;;;;;;8.30;5.40;;;;;;;15.01;70.51;100123.06;6274330;28;20071;-76
2022/04/27 07:17:24;;;;;;;11.48;6.93;;;;;;;15.22;70.64;100123.16;6237010;28;20087;-76
2022/04/27 07:20:25;;;;;;;10.48;5.90;;;;;;;15.35;67.88;100130.06;6262813;28;20432;-77
2022/04/27 07:23:26;;;;;;;13.15;6.25;;;;;;;15.21;68.90;100124.09;6253715;28;20485;-76
2022/04/27 07:26:26;;;;;;;9.25;6.05;;;;;;;15.49;70.74;100129.78;6250042;28;20407;-76
2022/04/27 07:29:27;;;;;;;10.05;6.05;;;;;;;15.38;68.56;100132.44;6240546;28;20421;-75
2022/04/27 07:32:28;;;;;;;10.75;6.15;;;;;;;15.02;69.98;100129.97;6228920;28;20144;-76
2022/04/27 07:35:29;;;;;;;8.52;5.88;;;;;;;15.00;70.91;100136.31;6243179;28;20065;-76
2022/04/27 07:38:30;;;;;;;8.30;5.85;;;;;;;15.18;70.08;100134.03;6251872;28;20059;-76
2022/04/27 07:41:31;;;;;;;8.55;6.38;;;;;;;15.31;68.77;100138.19;6228650;28;20057;-76
2022/04/27 07:44:32;;;;;;;12.23;6.20;;;;;;;15.26;70.60;100135.09;6261726;28;20420;-76
2022/04/27 07:47:44;;;;;;;10.63;6.07;;;;;;;15.50;72.53;100140.19;6256389;28;20041;-76
2022/04/27 07:50:45;;;;;;;12.25;6.53;;;;;;;15.65;69.94;100143.38;6252160;28;20053;-76
2022/04/27 07:53:46;;;;;;;13.02;5.70;;;;;;;15.86;69.65;100150.53;6269663;28;20060;-74
2022/04/27 07:56:47;;;;;;;9.20;6.40;;;;;;;15.97;69.30;100152.28;6254278;28;20053;-74
2022/04/27 07:59:47;;;;;;;8.35;5.85;;;;;;;16.06;67.15;100141.81;6244891;28;20045;-74
2022/04/27 08:02:48;;;;;;;9.82;5.97;;;;;;;16.22;67.17;100148.44;6246925;28;20072;-74
2022/04/27 08:05:49;;;;;;;8.23;5.57;;;;;;;16.36;66.57;100148.13;6235285;28;20037;-76
2022/04/27 08:08:50;;;;;;;9.32;5.55;;;;;;;16.43;64.58;100153.69;6251269;28;20052;-74
2022/04/27 08:11:51;;;;;;;8.40;5.05;;;;;;;16.30;62.80;100148.63;6273515;28;20052;-74
2022/04/27 08:14:53;;;;;;;7.90;4.73;;;;;;;16.47;63.92;100145.44;6273292;28;20071;-75
2022/04/27 08:18:06;;;;;;;8.68;5.30;;;;;;;16.41;62.91;100158.25;6240452;28;20446;-74
2022/04/27 08:21:16;;;;;;;10.30;5.90;;;;;;;16.40;67.45;100157.44;6273690;28;20500;-75
2022/04/27 08:24:19;;;;;;;11.98;5.75;;;;;;;16.55;66.33;100157.13;6241627;28;20045;-74
2022/04/27 08:27:20;;;;;;;15.13;9.43;;;;;;;16.37;64.70;100154.22;6256693;28;20053;-76
2022/04/27 08:30:20;;;;;;;11.20;6.88;;;;;;;16.46;64.08;100142.94;6274744;28;20094;-76
2022/04/27 08:33:22;;;;;;;8.68;5.97;;;;;;;16.30;65.31;100156.53;6273295;28;20056;-76
2022/04/27 08:36:23;;;;;;;10.30;5.88;;;;;;;16.68;64.53;100144.59;6274498;28;20111;-76
2022/04/27 08:39:24;;;;;;;8.98;5.75;;;;;;;16.69;64.37;100139.16;6273143;28;20041;-76
2022/04/27 08:42:24;;;;;;;10.70;7.57;;;;;;;16.46;66.05;100142.94;6273142;28;20088;-74
2022/04/27 08:45:26;;;;;;;14.52;8.65;;;;;;;17.05;62.32;100144.09;6272879;28;20053;-74
2022/04/27 08:48:27;;;;;;;8.63;6.37;;;;;;;17.02;63.16;100144.34;6272673;28;20045;-74
2022/04/27 08:51:31;;;;;;;8.85;6.47;;;;;;;16.98;62.14;100143.78;6255900;28;20282;-74
2022/04/27 08:54:33;;;;;;;7.80;5.43;;;;;;;16.83;61.92;100138.03;6256050;28;20049;-74
2022/04/27 08:57:35;;;;;;;7.38;5.13;;;;;;;16.80;61.93;100129.50;6272569;28;20049;-74
2022/04/27 09:00:36;;;;;;;9.57;5.65;;;;;;;16.89;60.72;100129.59;6272557;28;20452;-76
2022/04/27 09:03:39;;;;;;;10.02;5.57;;;;;;;16.63;61.66;100125.69;6255894;28;20156;-76
2022/04/27 09:06:41;;;;;;;11.18;5.72;;;;;;;17.14;60.93;100127.47;6273645;28;20444;-76
2022/04/27 09:09:42;;;;;;;8.82;5.50;;;;;;;17.05;59.79;100121.19;6289175;28;20394;-74
2022/04/27 09:12:53;;;;;;;8.52;5.25;;;;;;;17.16;60.09;100117.63;6271754;28;20079;-75
2022/04/27 09:16:01;;;;;;;11.20;5.67;;;;;;;17.07;59.12;100116.63;6272409;28;20049;-74
2022/04/27 09:22:21;;;;;;;9.73;5.90;;;;;;;17.39;58.44;100127.94;6273220;28;20040;-74
2022/04/27 09:25:33;;;;;;;8.90;4.88;;;;;;;17.73;56.62;100123.97;6255426;28;20044;-75
2022/04/27 09:28:34;;;;;;;;;;;;;;;18.40;55.57;100137.28;6255518;28;20114;-75
2022/04/27 09:31:35;;;;;;;9.10;5.00;;;;;;;17.92;55.92;100131.06;6255319;28;19921;-76
2022/04/27 09:34:47;;;;;;;10.75;4.78;;;;;;;17.98;56.05;100132.34;6271886;28;20049;-77
2022/04/27 09:37:47;;;;;;;5.78;4.07;;;;;;;18.60;49.50;100134.59;6238996;28;20060;-77
2022/04/27 09:40:52;;;;;;;7.18;4.25;;;;;;;19.13;50.15;100126.91;6288414;28;20056;-78
2022/04/27 09:43:53;;;;;;;8.35;4.68;;;;;;;19.05;52.59;100131.28;6272611;28;20086;-76
2022/04/27 09:46:54;;;;;;;9.83;4.73;;;;;;;19.38;50.80;100129.00;6271475;28;20132;-76
2022/04/27 09:49:55;;;;;;;5.55;4.35;;;;;;;19.68;49.23;100130.47;6254975;28;20060;-76
2022/04/27 09:52:57;;;;;;;4.97;3.57;;;;;;;20.09;44.40;100136.97;6287914;28;20059;-76
2022/04/27 09:56:00;;;;;;;7.78;4.25;;;;;;;20.60;44.89;100134.56;6271325;28;20045;-76
2022/04/27 09:59:09;;;;;;;7.65;3.90;;;;;;;20.42;46.30;100131.09;6288094;28;20520;-76
2022/04/27 10:02:22;;;;;;;7.20;4.38;;;;;;;19.91;45.49;100129.06;6254270;28;20052;-76
2022/04/27 10:05:23;;;;;;;7.88;4.32;;;;;;;19.04;48.90;100137.53;6254806;28;20103;-76
2022/04/27 10:08:24;;;;;;;7.93;3.93;;;;;;;19.60;50.50;100141.81;6254510;28;20115;-76
2022/04/27 10:11:31;;;;;;;5.20;3.35;;;;;;;20.06;45.48;100147.06;6270978;28;20060;-76
2022/04/27 10:14:32;;;;;;;4.70;3.50;;;;;;;19.87;44.24;100148.91;6270957;28;20120;-76
2022/04/27 10:17:34;;;;;;;5.38;3.97;;;;;;;19.59;45.76;100148.09;6254614;28;20049;-76
2022/04/27 10:20:35;;;;;;;5.05;3.53;;;;;;;19.63;45.85;100151.28;6254275;28;20053;-76
2022/04/27 10:23:44;;;;;;;7.03;4.20;;;;;;;19.80;45.27;100142.53;6270504;28;20052;-74
2022/04/27 10:26:45;;;;;;;8.52;4.70;;;;;;;18.78;53.10;100129.38;6271117;28;20444;-74
2022/04/27 10:29:57;;;;;;;6.77;4.80;;;;;;;18.95;51.01;100133.97;6254050;28;20119;-74
2022/04/27 10:32:58;;;;;;;6.90;4.63;;;;;;;18.61;50.93;100134.44;6271689;28;20451;-74
2022/04/27 10:36:39;;;;;;;7.53;5.00;;;;;;;18.96;49.51;100148.81;6270518;28;20091;-74
2022/04/27 10:39:43;;;;;;;9.27;4.95;;;;;;;20.47;47.04;100145.56;6253750;28;20053;-74
2022/04/27 10:42:44;;;;;;;7.47;5.00;;;;;;;20.21;45.42;100145.53;6270247;28;20119;-74
2022/04/27 10:45:48;;;;;;;9.43;5.17;;;;;;;20.25;45.31;100140.75;6286965;28;20101;-75
2022/04/27 10:48:48;;;;;;;6.93;5.03;;;;;;;20.35;44.97;100141.50;6253784;28;20041;-74
2022/04/27 10:52:01;;;;;;;8.60;5.60;;;;;;;20.19;47.66;100146.66;6270215;28;20114;-74
2022/04/27 10:55:04;;;;;;;6.43;4.65;;;;;;;19.45;47.50;100135.34;6253444;28;20493;-74
2022/04/27 10:58:12;;;;;;;7.82;5.30;;;;;;;19.29;49.49;100147.44;6270038;28;20103;-74
2022/04/27 11:01:51;;;;;;;7.15;4.93;;;;;;;18.79;48.97;100139.84;6286678;28;20060;-74
2022/04/27 11:04:53;;;;;;;9.02;4.88;;;;;;;18.37;50.51;100149.97;6253356;28;20053;-74
2022/04/27 11:08:07;;;;;;;9.20;4.20;;;;;;;18.36;48.47;100145.63;6271322;28;20041;-75
2022/04/27 11:11:09;;;;;;;14.63;4.70;;;;;;;17.83;51.60;100152.19;6269988;28;20057;-75
2022/04/27 11:14:12;;;;;;;9.63;4.32;;;;;;;18.09;50.58;100148.03;6271444;28;20575;-75
2022/04/27 11:17:26;;;;;;;7.68;4.50;;;;;;;18.02;48.64;100146.09;6271160;28;20456;-75
2022/04/27 11:20:38;;;;;;;7.28;4.38;;;;;;;17.61;48.99;100145.34;6271174;28;20049;-75
2022/04/27 11:23:39;;;;;;;;;;;;;;;17.91;48.34;100147.03;6271414;28;20049;-75
2022/04/27 11:26:44;;;;;;;6.97;3.55;;;;;;;17.76;47.92;100141.31;6253113;28;20406;-75
2022/04/27 11:29:46;;;;;;;5.65;3.70;;;;;;;17.64;47.29;100148.53;6253787;28;20501;-76
2022/04/27 11:32:51;;;;;;;5.97;3.40;;;;;;;18.09;47.42;100137.47;6269815;28;20453;-77
2022/04/27 11:35:51;;;;;;;6.25;3.30;;;;;;;17.80;47.22;100137.44;6269975;28;20110;-75
2022/04/27 11:38:54;;;;;;;4.38;3.08;;;;;;;17.98;48.21;100142.91;6274490;28;20049;-75
2022/04/27 11:41:59;;;;;;;5.90;3.20;;;;;;;17.93;45.39;100137.19;6242042;28;20056;-74
2022/04/27 11:45:00;;;;;;;3.88;2.92;;;;;;;17.90;48.17;100140.94;6224837;28;20098;-75
2022/04/27 11:48:03;;;;;;;4.57;2.85;;;;;;;17.91;48.90;100134.72;6257817;28;20056;-74
2022/04/27 11:51:06;;;;;;;2.97;2.20;;;;;;;17.84;48.27;100124.84;6257728;28;20102;-76
2022/04/27 11:54:07;;;;;;;6.53;2.30;;;;;;;17.72;47.91;100117.00;6307568;28;20558;-75
2022/04/27 11:57:12;;;;;;;3.13;2.27;;;;;;;18.08;47.53;100122.59;6257597;28;20056;-74
2022/04/27 12:00:20;;;;;;;3.55;2.65;;;;;;;18.59;47.06;100109.97;6275316;28;20465;-74
2022/04/27 12:03:20;;;;;;;4.55;3.38;;;;;;;19.38;47.36;100113.97;6257277;28;20055;-75
2022/04/27 12:06:22;;;;;;;8.13;5.33;;;;;;;19.61;49.31;100106.41;6273744;28;20056;-75
2022/04/27 12:09:24;;;;;;;6.13;4.55;;;;;;;18.90;52.35;100096.53;6257301;28;20041;-74
2022/04/27 12:12:26;;;;;;;8.73;6.13;;;;;;;18.97;53.07;100094.97;6257404;28;20493;-74
2022/04/27 12:15:28;;;;;;;9.48;5.45;;;;;;;19.15;52.33;100097.69;6273415;28;20045;-74
2022/04/27 12:18:31;;;;;;;9.48;5.50;;;;;;;18.90;51.19;100084.16;6257125;28;20401;-74
2022/04/27 12:21:32;;;;;;;7.45;4.95;;;;;;;19.57;48.67;100085.72;6257257;28;20489;-77
2022/04/27 12:24:42;;;;;;;9.13;4.67;;;;;;;19.60;47.75;100088.88;6256886;28;20044;-75
2022/04/27 12:27:44;;;;;;;6.30;4.47;;;;;;;19.77;47.70;100095.19;6274565;28;20037;-74
2022/04/27 12:30:48;;;;;;;6.60;4.83;;;;;;;19.77;45.83;100092.53;6273134;28;20107;-74
2022/04/27 12:33:51;;;;;;;9.85;4.80;;;;;;;19.60;46.54;100070.38;6306655;28;20053;-75
2022/04/27 12:40:15;;;;;;;9.70;4.95;;;;;;;19.78;46.96;100070.38;6274278;28;20047;-76
2022/04/27 12:43:17;;;;;;;7.47;4.72;;;;;;;19.61;47.83;100064.06;6273352;28;20124;-75
2022/04/27 12:46:18;;;;;;;7.68;4.80;;;;;;;19.93;47.77;100060.91;6256455;28;20047;-76
2022/04/27 12:49:44;;;;;;;7.30;4.93;;;;;;;20.21;47.25;100049.34;6255412;28;20045;-76
2022/04/27 12:52:45;;;;;;;6.90;4.70;;;;;;;19.71;47.97;100050.78;6272617;28;20059;-76
2022/04/27 12:56:02;;;;;;;8.95;5.07;;;;;;;19.69;49.35;100044.78;6256262;28;20044;-76
2022/04/27 12:59:05;;;;;;;9.98;4.45;;;;;;;19.35;49.78;100050.75;6272634;28;20056;-76
2022/04/27 13:02:08;;;;;;;8.00;4.60;;;;;;;20.03;48.23;100049.38;6272525;28;20041;-76
2022/04/27 13:05:09;;;;;;;10.02;6.43;;;;;;;19.85;47.92;100050.25;6272799;28;20083;-76
2022/04/27 13:08:12;;;;;;;9.52;6.70;;;;;;;20.20;47.14;100045.88;6273579;28;20473;-76
2022/04/27 13:14:32;;;;;;;12.88;4.95;;;;;;;19.82;48.09;100047.06;6272398;28;20037;-75
2022/04/27 13:17:33;;;;;;;8.80;4.83;;;;;;;19.82;48.58;100029.38;6272331;28;20052;-74
2022/04/27 13:20:34;;;;;;;9.30;4.97;;;;;;;19.91;47.22;100031.09;6288810;28;20057;-74
2022/04/27 13:23:35;;;;;;;7.78;4.88;;;;;;;19.87;48.04;100034.19;6239283;28;20728;-74
2022/04/27 13:26:36;;;;;;;7.43;5.03;;;;;;;19.89;47.88;100033.06;6255268;28;20106;-74
2022/04/27 13:29:37;;;;;;;6.97;4.75;;;;;;;19.67;47.70;100031.69;6272380;28;20044;-74
2022/04/27 13:32:38;;;;;;;11.80;4.43;;;;;;;19.66;48.08;100039.78;6273151;28;20041;-74
2022/04/27 13:35:39;;;;;;;7.60;4.67;;;;;;;19.77;50.11;100036.94;6271982;28;20057;-74
2022/04/27 13:38:40;;;;;;;6.03;4.43;;;;;;;20.26;47.00;100025.84;6238964;28;20053;-74
2022/04/27 13:41:41;;;;;;;5.57;3.77;;;;;;;20.10;45.47;100027.41;6255306;28;20112;-76
2022/04/27 13:44:41;;;;;;;10.33;4.33;;;;;;;19.94;45.18;100019.38;6272938;28;20485;-74
2022/04/27 13:47:42;;;;;;;7.73;3.70;;;;;;;19.82;45.93;100018.78;6271618;28;20608;-74
2022/04/27 13:50:44;;;;;;;8.43;4.07;;;;;;;20.04;45.86;100017.44;6271652;28;20056;-74
2022/04/27 13:53:45;;;;;;;6.68;4.53;;;;;;;20.09;45.37;100011.66;6272995;28;20049;-77
2022/04/27 13:56:46;;;;;;;8.40;4.07;;;;;;;20.18;46.01;100012.53;6255108;28;20036;-76
2022/04/27 13:59:47;;;;;;;9.97;4.27;;;;;;;20.11;47.13;100015.81;6254761;28;20277;-77
2022/04/27 14:02:48;;;;;;;6.10;3.80;;;;;;;20.16;46.46;100015.38;6255284;28;20094;-74
2022/04/27 14:05:52;;;;;;;6.43;4.40;;;;;;;19.88;45.83;100019.97;6271183;28;20274;-76
2022/04/27 14:08:53;;;;;;;8.38;4.30;;;;;;;19.70;46.37;100019.97;6272389;28;20045;-76
2022/04/27 14:15:13;;;;;;;7.57;4.30;;;;;;;20.06;47.32;100019.94;6257227;28;20792;-76
2022/04/27 14:18:15;;;;;;;6.40;4.60;;;;;;;20.15;46.51;100011.03;6271463;28;20382;-75
2022/04/27 14:21:16;;;;;;;5.95;3.65;;;;;;;19.96;45.59;100004.16;6271206;28;20494;-74
2022/04/27 14:24:17;;;;;;;9.15;4.50;;;;;;;19.79;46.19;99997.06;6271691;28;20052;-76
2022/04/27 14:27:18;;;;;;;8.10;4.18;;;;;;;20.22;43.71;99998.84;6287426;28;20194;-74
2022/04/27 14:30:19;;;;;;;7.55;3.78;;;;;;;20.25;43.84;99998.53;6271904;28;20041;-74
2022/04/27 14:33:20;;;;;;;5.72;4.20;;;;;;;20.41;43.67;100000.44;6270490;28;20501;-75
2022/04/27 14:36:22;;;;;;;7.95;4.00;;;;;;;20.65;44.22;99997.09;6271731;28;20052;-75
2022/04/27 14:39:23;;;;;;;8.93;4.32;;;;;;;20.42;44.08;99991.47;6270652;28;20040;-75